Kirovo-Chepetsk, Russia
Current Conditions -  °F | °C
As of 2:00 PM on Monday 26 Jan 2015 (Local Time) from UWKS Reporting Station
Clear Clear  
Wind Chill: -9°   Ceiling: Unl
Heat Index:   Visibility: 6mi
Dew Point: -6°   Wind: 9mph
Humidity: 61%   Direction: 170°S
Pressure: 30.5"   Gusts: NA
Location:  58.55°N, 50.04°E
Report Text: UWKS 261000Z 17004MPS CAVOK M15/M21 Q1033 NOSIG RMK QFE75906920350
Loading
Personal Weather Stations






























Interactive Weather Map New forecast layout! Learn more

10-Day Weather Forecast

Advertisements
Track Severe Weather on mobile